createdAt,value
2022-10-03T00:01:27.904Z,100.00
2022-10-03T00:04:10.811Z,100.00
2022-10-03T00:06:47.908Z,100.00
2022-10-03T00:09:26.835Z,100.00
2022-10-03T00:12:03.247Z,100.00
2022-10-03T00:14:37.915Z,100.00
2022-10-03T00:17:13.205Z,100.00
2022-10-03T00:19:52.233Z,100.00
2022-10-03T00:22:29.437Z,100.00
2022-10-03T00:25:05.617Z,100.00
2022-10-03T00:27:39.602Z,100.00
2022-10-03T00:30:18.528Z,100.00
2022-10-03T00:33:07.654Z,100.00
2022-10-03T00:35:59.325Z,100.00
2022-10-03T00:38:52.835Z,100.00
2022-10-03T00:41:38.778Z,100.00
2022-10-03T00:44:34.436Z,100.00
2022-10-03T00:47:32.092Z,100.00
2022-10-03T00:50:40.116Z,100.00
2022-10-03T00:53:22.146Z,100.00
2022-10-03T00:56:07.152Z,100.00
2022-10-03T00:58:59.626Z,100.00
2022-10-03T01:01:35.680Z,100.00
2022-10-03T01:04:17.939Z,100.00
2022-10-03T01:06:50.089Z,100.00
2022-10-03T01:09:35.062Z,100.00
2022-10-03T01:12:22.079Z,100.00
2022-10-03T01:15:06.162Z,100.00
2022-10-03T01:17:47.590Z,100.00
2022-10-03T01:20:22.543Z,100.00
2022-10-03T01:23:12.011Z,100.00
2022-10-03T01:25:45.442Z,100.00
2022-10-03T01:28:50.766Z,100.00
2022-10-03T01:31:23.616Z,100.00
2022-10-03T01:33:57.992Z,100.00
2022-10-03T01:36:33.213Z,100.00
2022-10-03T01:39:05.269Z,100.00
2022-10-03T01:41:41.346Z,100.00
2022-10-03T01:44:23.988Z,100.00
2022-10-03T01:46:57.230Z,100.00
2022-10-03T01:49:34.041Z,100.00
2022-10-03T01:52:07.500Z,100.00
2022-10-03T01:54:41.303Z,100.00
2022-10-03T01:57:19.370Z,100.00
2022-10-03T01:59:56.780Z,100.00
2022-10-03T02:02:31.871Z,100.00
2022-10-03T02:05:06.884Z,100.00
2022-10-03T02:07:44.242Z,100.00
2022-10-03T02:10:22.714Z,100.00
2022-10-03T02:12:56.667Z,100.00
2022-10-03T02:15:34.059Z,100.00
2022-10-03T02:18:13.351Z,100.00
2022-10-03T02:20:46.458Z,100.00
2022-10-03T02:23:33.750Z,100.00
2022-10-03T02:26:12.316Z,100.00
2022-10-03T02:29:10.726Z,100.00
2022-10-03T02:31:57.186Z,100.00
2022-10-03T02:34:55.292Z,100.00
2022-10-03T02:37:46.670Z,100.00
2022-10-03T02:40:31.399Z,100.00
2022-10-03T02:43:17.531Z,100.00
2022-10-03T02:46:02.602Z,100.00
2022-10-03T02:49:05.639Z,100.00
2022-10-03T02:51:50.670Z,100.00
2022-10-03T02:54:45.461Z,100.00
2022-10-03T02:57:30.784Z,100.00
2022-10-03T03:00:08.627Z,100.00
2022-10-03T03:03:08.953Z,100.00
2022-10-03T03:05:53.458Z,100.00
2022-10-03T03:08:43.128Z,100.00
2022-10-03T03:11:26.485Z,100.00
2022-10-03T03:14:11.790Z,100.00
2022-10-03T03:17:08.911Z,100.00
2022-10-03T03:19:43.504Z,100.00
2022-10-03T03:22:26.147Z,100.00
2022-10-03T03:25:06.313Z,100.00
2022-10-03T03:27:43.098Z,100.00
2022-10-03T03:30:15.502Z,100.00
2022-10-03T03:32:52.410Z,100.00
2022-10-03T03:35:34.293Z,100.00
2022-10-03T03:38:10.910Z,100.00
2022-10-03T03:40:48.330Z,100.00
2022-10-03T03:43:49.588Z,100.00
2022-10-03T03:46:26.701Z,100.00
2022-10-03T03:49:03.408Z,100.00
2022-10-03T03:51:36.811Z,100.00
2022-10-03T03:54:23.398Z,100.00
2022-10-03T03:57:08.246Z,100.00
2022-10-03T03:59:50.563Z,100.00
2022-10-03T04:02:32.169Z,100.00
2022-10-03T04:05:11.100Z,100.00
2022-10-03T04:07:50.559Z,100.00
2022-10-03T04:10:28.963Z,100.00
2022-10-03T04:13:19.063Z,100.00
2022-10-03T04:16:06.088Z,100.00
2022-10-03T04:18:59.618Z,100.00
2022-10-03T04:21:38.686Z,100.00
2022-10-03T04:24:31.322Z,100.00
2022-10-03T04:27:07.920Z,100.00
2022-10-03T04:29:47.357Z,100.00
2022-10-03T04:32:36.955Z,100.00
2022-10-03T04:35:26.642Z,100.00
2022-10-03T04:38:03.741Z,100.00
2022-10-03T04:40:42.526Z,100.00
2022-10-03T04:43:16.972Z,100.00
2022-10-03T04:45:57.207Z,100.00
2022-10-03T04:48:41.518Z,100.00
2022-10-03T04:51:19.128Z,100.00
2022-10-03T04:53:57.208Z,100.00
2022-10-03T04:56:35.732Z,100.00
2022-10-03T04:59:19.840Z,100.00
2022-10-03T05:01:53.757Z,100.00
2022-10-03T05:04:36.000Z,100.00
2022-10-03T05:07:16.722Z,100.00
2022-10-03T05:09:51.622Z,100.00
2022-10-03T05:12:30.169Z,100.00
2022-10-03T05:15:07.830Z,100.00
2022-10-03T05:17:48.958Z,100.00
2022-10-03T05:20:43.158Z,100.00
2022-10-03T05:23:21.367Z,100.00
2022-10-03T05:26:10.827Z,100.00
2022-10-03T05:28:53.590Z,100.00
2022-10-03T05:31:33.759Z,100.00
2022-10-03T05:34:10.584Z,100.00
2022-10-03T05:36:58.061Z,100.00
2022-10-03T05:39:33.982Z,100.00
2022-10-03T05:42:22.996Z,100.00
2022-10-03T05:45:05.959Z,100.00
2022-10-03T05:47:49.439Z,100.00
2022-10-03T05:50:36.383Z,100.00
2022-10-03T05:53:15.696Z,100.00
2022-10-03T05:55:57.164Z,100.00
2022-10-03T05:58:38.221Z,100.00
2022-10-03T06:01:30.608Z,100.00
2022-10-03T06:04:08.295Z,100.00
2022-10-03T06:06:50.207Z,100.00
2022-10-03T06:09:35.830Z,100.00
2022-10-03T06:12:11.398Z,100.00
2022-10-03T06:14:54.827Z,100.00
2022-10-03T06:17:48.402Z,100.00
2022-10-03T06:20:43.938Z,100.00
2022-10-03T06:23:28.482Z,100.00
2022-10-03T06:26:15.913Z,100.00
2022-10-03T06:29:05.670Z,100.00
2022-10-03T06:32:04.608Z,100.00
2022-10-03T06:34:43.451Z,100.00
2022-10-03T06:37:30.991Z,100.00
2022-10-03T06:40:21.675Z,100.00
2022-10-03T06:43:09.796Z,100.00
2022-10-03T06:46:03.767Z,100.00
2022-10-03T06:48:54.443Z,100.00
2022-10-03T06:51:37.859Z,100.00
2022-10-03T06:54:42.604Z,100.00
2022-10-03T06:57:26.098Z,100.00
2022-10-03T07:00:02.869Z,100.00
2022-10-03T07:02:47.079Z,100.00
2022-10-03T07:05:39.868Z,100.00
2022-10-03T07:08:26.490Z,100.00
2022-10-03T07:11:09.366Z,100.00
2022-10-03T07:13:53.198Z,100.00
2022-10-03T07:16:43.893Z,100.00
2022-10-03T07:19:37.978Z,100.00
2022-10-03T07:22:22.434Z,100.00
2022-10-03T07:25:13.010Z,100.00
2022-10-03T07:27:55.486Z,100.00
2022-10-03T07:30:26.242Z,100.00
2022-10-03T07:33:25.004Z,100.00
2022-10-03T07:36:22.295Z,100.00
2022-10-03T07:39:16.320Z,100.00
2022-10-03T07:42:04.001Z,100.00
2022-10-03T07:44:53.763Z,100.00
2022-10-03T07:47:38.583Z,100.00
2022-10-03T07:50:23.264Z,100.00
2022-10-03T07:53:05.262Z,100.00
2022-10-03T07:55:45.642Z,100.00
2022-10-03T07:58:26.458Z,100.00
2022-10-03T08:01:10.935Z,100.00
2022-10-03T08:04:04.357Z,100.00
2022-10-03T08:06:43.533Z,100.00
2022-10-03T08:09:31.682Z,100.00
2022-10-03T08:12:25.787Z,100.00
2022-10-03T08:15:05.225Z,100.00
2022-10-03T08:18:02.266Z,100.00
2022-10-03T08:20:49.923Z,100.00
2022-10-03T08:23:40.733Z,100.00
2022-10-03T08:26:20.786Z,100.00
2022-10-03T08:28:57.381Z,100.00
2022-10-03T08:31:52.823Z,99.44
2022-10-03T08:34:46.715Z,96.97
2022-10-03T08:37:31.518Z,96.04
2022-10-03T08:40:19.755Z,97.66
2022-10-03T08:43:09.278Z,96.99
2022-10-03T08:45:45.620Z,96.09
2022-10-03T08:48:33.294Z,95.77
2022-10-03T08:51:18.262Z,94.59
2022-10-03T08:54:12.536Z,92.02
2022-10-03T08:56:57.368Z,93.59
2022-10-03T08:59:42.251Z,90.59
2022-10-03T09:02:36.034Z,90.61
2022-10-03T09:05:24.636Z,96.22
2022-10-03T09:08:09.314Z,95.41
2022-10-03T09:10:40.844Z,95.96
2022-10-03T09:13:31.750Z,97.00
2022-10-03T09:16:24.758Z,91.75
2022-10-03T09:19:06.983Z,92.52
2022-10-03T09:21:57.588Z,91.81
2022-10-03T09:24:36.399Z,90.69
2022-10-03T09:27:25.333Z,92.85
2022-10-03T09:30:07.117Z,89.71
2022-10-03T09:32:51.827Z,90.00
2022-10-03T09:35:42.377Z,87.11
2022-10-03T09:38:33.254Z,84.01
2022-10-03T09:41:17.719Z,85.01
2022-10-03T09:44:05.211Z,88.55
2022-10-03T09:46:46.288Z,89.27
2022-10-03T09:49:30.651Z,91.81
2022-10-03T09:52:10.292Z,91.53
2022-10-03T09:55:01.824Z,92.44
2022-10-03T09:57:43.396Z,92.17
2022-10-03T10:00:26.696Z,94.83
2022-10-03T10:03:10.714Z,96.58
2022-10-03T10:05:55.703Z,95.41
2022-10-03T10:08:41.109Z,95.76
2022-10-03T10:11:34.282Z,94.28
2022-10-03T10:14:26.290Z,91.08
2022-10-03T10:17:11.078Z,91.54
2022-10-03T10:19:51.619Z,94.09
2022-10-03T10:22:48.513Z,89.66
2022-10-03T10:25:28.176Z,86.82
2022-10-03T10:28:09.350Z,88.75
2022-10-03T10:30:55.680Z,86.43
2022-10-03T10:33:46.361Z,86.35
2022-10-03T10:36:46.758Z,84.49
2022-10-03T10:39:35.039Z,85.06
2022-10-03T10:42:24.058Z,86.37
2022-10-03T10:45:17.550Z,85.41
2022-10-03T10:48:03.601Z,84.96
2022-10-03T10:50:51.242Z,84.82
2022-10-03T10:53:38.131Z,84.11
2022-10-03T10:56:26.266Z,83.82
2022-10-03T10:59:13.991Z,88.43
2022-10-03T11:01:58.844Z,88.43
2022-10-03T11:04:46.220Z,90.97
2022-10-03T11:07:28.970Z,86.83
2022-10-03T11:10:25.769Z,86.10
2022-10-03T11:13:10.573Z,85.83
2022-10-03T11:16:01.084Z,82.79
2022-10-03T11:18:51.473Z,80.62
2022-10-03T11:21:36.335Z,81.50
2022-10-03T11:24:27.071Z,81.79
2022-10-03T11:27:14.772Z,83.54
2022-10-03T11:29:59.664Z,87.01
2022-10-03T11:32:50.069Z,92.97
2022-10-03T11:35:38.564Z,95.18
2022-10-03T11:38:16.315Z,97.27
2022-10-03T11:40:55.886Z,90.75
2022-10-03T11:43:46.410Z,94.86
2022-10-03T11:46:31.545Z,92.75
2022-10-03T11:49:03.319Z,91.45
2022-10-03T11:51:46.171Z,92.12
2022-10-03T11:54:31.515Z,93.35
2022-10-03T11:57:04.886Z,92.50
2022-10-03T11:59:39.196Z,92.99
2022-10-03T12:02:20.204Z,91.34
2022-10-03T12:04:55.091Z,93.59
2022-10-03T12:07:49.306Z,95.93
2022-10-03T12:10:29.203Z,97.32
2022-10-03T12:13:00.096Z,97.94
2022-10-03T12:15:35.359Z,96.65
2022-10-03T12:18:09.345Z,92.10
2022-10-03T12:20:50.914Z,95.87
2022-10-03T12:23:31.438Z,96.05
2022-10-03T12:26:04.175Z,95.53
2022-10-03T12:28:37.453Z,96.61
2022-10-03T12:31:17.032Z,92.75
2022-10-03T12:33:52.637Z,91.11
2022-10-03T12:36:27.524Z,90.20
2022-10-03T12:39:09.316Z,87.69
2022-10-03T12:41:48.894Z,89.26
2022-10-03T12:44:23.687Z,90.40
2022-10-03T12:47:02.386Z,89.77
2022-10-03T12:49:42.981Z,90.99
2022-10-03T12:52:18.793Z,88.54
2022-10-03T12:54:54.055Z,91.02
2022-10-03T12:57:38.603Z,91.59
2022-10-03T13:00:10.213Z,91.71
2022-10-03T13:02:44.143Z,91.00
2022-10-03T13:05:25.863Z,91.09
2022-10-03T13:07:58.200Z,90.54
2022-10-03T13:10:37.496Z,91.57
2022-10-03T13:13:15.597Z,92.82
2022-10-03T13:15:57.281Z,91.89
2022-10-03T13:18:36.383Z,92.73
2022-10-03T13:21:40.714Z,94.36
2022-10-03T13:24:05.659Z,99.09
2022-10-03T13:26:54.079Z,100.00
2022-10-03T13:29:33.763Z,100.00
2022-10-03T13:32:08.537Z,100.00
2022-10-03T13:34:42.275Z,100.00
2022-10-03T13:37:15.529Z,100.00
2022-10-03T13:39:49.956Z,100.00
2022-10-03T13:42:26.157Z,100.00
2022-10-03T13:44:59.613Z,100.00
2022-10-03T13:47:35.415Z,100.00
2022-10-03T13:50:09.324Z,100.00
2022-10-03T13:52:40.358Z,100.00
2022-10-03T13:55:20.389Z,100.00
2022-10-03T13:57:57.197Z,100.00
2022-10-03T14:00:28.506Z,100.00
2022-10-03T14:03:05.070Z,100.00
2022-10-03T14:05:51.312Z,100.00
2022-10-03T14:08:31.206Z,100.00
2022-10-03T14:11:17.771Z,100.00
2022-10-03T14:13:59.891Z,100.00
2022-10-03T14:16:31.663Z,100.00
2022-10-03T14:19:06.734Z,100.00
2022-10-03T14:21:51.172Z,100.00
2022-10-03T14:24:37.255Z,100.00
2022-10-03T14:27:13.488Z,100.00
2022-10-03T14:29:51.568Z,100.00
2022-10-03T14:32:46.308Z,100.00
2022-10-03T14:35:21.537Z,100.00
2022-10-03T14:37:56.546Z,100.00
2022-10-03T14:40:28.886Z,100.00
2022-10-03T14:43:05.334Z,100.00
2022-10-03T14:45:41.351Z,100.00
2022-10-03T14:48:15.926Z,100.00
2022-10-03T14:50:46.215Z,100.00
2022-10-03T14:53:20.579Z,100.00
2022-10-03T14:55:59.762Z,100.00
2022-10-03T14:58:32.958Z,100.00
2022-10-03T15:01:15.357Z,100.00
2022-10-03T15:03:48.412Z,100.00
2022-10-03T15:06:23.809Z,100.00
2022-10-03T15:08:57.263Z,100.00
2022-10-03T15:11:30.332Z,100.00
2022-10-03T15:14:02.705Z,100.00
2022-10-03T15:16:37.453Z,100.00
2022-10-03T15:19:09.264Z,100.00
2022-10-03T15:21:40.189Z,100.00
2022-10-03T15:24:12.907Z,100.00
2022-10-03T15:26:44.746Z,100.00
2022-10-03T15:29:18.208Z,100.00
2022-10-03T15:31:51.518Z,100.00
2022-10-03T15:34:23.015Z,100.00
2022-10-03T15:36:54.359Z,100.00
2022-10-03T15:39:27.365Z,99.36
2022-10-03T15:42:00.130Z,99.09
2022-10-03T15:44:39.259Z,98.69
2022-10-03T15:47:15.734Z,99.26
2022-10-03T15:49:49.125Z,100.00
2022-10-03T15:52:21.039Z,100.00
2022-10-03T15:54:56.885Z,100.00
2022-10-03T15:57:39.447Z,100.00
2022-10-03T16:00:10.539Z,100.00
2022-10-03T16:02:52.779Z,100.00
2022-10-03T16:05:25.676Z,100.00
2022-10-03T16:08:00.030Z,100.00
2022-10-03T16:10:31.189Z,100.00
2022-10-03T16:13:04.238Z,100.00
2022-10-03T16:15:41.868Z,100.00
2022-10-03T16:18:36.374Z,100.00
2022-10-03T16:21:09.113Z,100.00
2022-10-03T16:23:46.030Z,100.00
2022-10-03T16:26:19.172Z,100.00
2022-10-03T16:28:55.076Z,100.00
2022-10-03T16:31:28.828Z,100.00
2022-10-03T16:34:08.939Z,100.00
2022-10-03T16:36:45.317Z,100.00
2022-10-03T16:39:22.835Z,100.00
2022-10-03T16:41:55.485Z,100.00
2022-10-03T16:44:29.740Z,100.00
2022-10-03T16:47:03.594Z,100.00
2022-10-03T16:50:02.740Z,100.00
2022-10-03T16:52:34.737Z,100.00
2022-10-03T16:55:07.200Z,100.00
2022-10-03T16:57:44.417Z,100.00
2022-10-03T17:00:19.998Z,100.00
2022-10-03T17:02:51.001Z,100.00
2022-10-03T17:05:23.736Z,100.00
2022-10-03T17:07:54.634Z,100.00
2022-10-03T17:10:31.674Z,100.00
2022-10-03T17:13:04.003Z,100.00
2022-10-03T17:15:36.665Z,100.00
2022-10-03T17:18:16.121Z,100.00
2022-10-03T17:20:51.248Z,100.00
2022-10-03T17:23:26.555Z,100.00
2022-10-03T17:26:02.228Z,100.00
2022-10-03T17:28:37.327Z,100.00
2022-10-03T17:31:08.907Z,100.00
2022-10-03T17:33:44.567Z,100.00
2022-10-03T17:36:34.409Z,100.00
2022-10-03T17:39:14.356Z,100.00
2022-10-03T17:41:55.239Z,100.00
2022-10-03T17:44:35.246Z,100.00
2022-10-03T17:47:12.368Z,100.00
2022-10-03T17:50:02.849Z,100.00
2022-10-03T17:52:36.493Z,100.00
2022-10-03T17:55:16.146Z,100.00
2022-10-03T17:57:49.702Z,100.00
2022-10-03T18:00:23.650Z,100.00
2022-10-03T18:02:59.209Z,100.00
2022-10-03T18:05:34.959Z,100.00
2022-10-03T18:08:08.169Z,100.00
2022-10-03T18:10:47.804Z,100.00
2022-10-03T18:13:26.440Z,100.00
2022-10-03T18:16:12.705Z,100.00
2022-10-03T18:18:57.943Z,100.00
2022-10-03T18:21:41.496Z,100.00
2022-10-03T18:24:23.248Z,100.00
2022-10-03T18:27:14.214Z,100.00
2022-10-03T18:29:53.338Z,100.00
2022-10-03T18:32:29.946Z,100.00
2022-10-03T18:35:19.374Z,100.00
2022-10-03T18:37:57.532Z,100.00
2022-10-03T18:40:30.493Z,100.00
2022-10-03T18:43:05.270Z,100.00
2022-10-03T18:45:43.349Z,100.00
2022-10-03T18:48:16.465Z,100.00
2022-10-03T18:51:01.670Z,100.00
2022-10-03T18:53:35.011Z,100.00
2022-10-03T18:56:09.428Z,100.00
2022-10-03T18:58:46.442Z,100.00
2022-10-03T19:01:20.056Z,100.00
2022-10-03T19:03:52.716Z,100.00
2022-10-03T19:06:24.949Z,100.00
2022-10-03T19:08:57.381Z,100.00
2022-10-03T19:11:32.457Z,100.00
2022-10-03T19:14:13.568Z,100.00
2022-10-03T19:17:01.284Z,100.00
2022-10-03T19:19:34.881Z,100.00
2022-10-03T19:22:06.179Z,100.00
2022-10-03T19:24:57.382Z,100.00
2022-10-03T19:27:42.723Z,100.00
2022-10-03T19:30:21.142Z,100.00
2022-10-03T19:32:56.158Z,100.00
2022-10-03T19:35:27.654Z,100.00
2022-10-03T19:37:59.591Z,100.00
2022-10-03T19:40:45.307Z,100.00
2022-10-03T19:43:33.059Z,100.00
2022-10-03T19:46:12.949Z,100.00
2022-10-03T19:48:46.662Z,100.00
2022-10-03T19:51:23.868Z,100.00
2022-10-03T19:53:56.753Z,100.00
2022-10-03T19:56:28.763Z,100.00
2022-10-03T19:59:04.424Z,100.00
2022-10-03T20:01:52.941Z,100.00
2022-10-03T20:04:36.976Z,100.00
2022-10-03T20:07:14.295Z,100.00
2022-10-03T20:09:47.826Z,100.00
2022-10-03T20:12:18.396Z,100.00
2022-10-03T20:14:53.086Z,100.00
2022-10-03T20:17:26.550Z,100.00
2022-10-03T20:20:06.606Z,100.00
2022-10-03T20:22:43.958Z,100.00
2022-10-03T20:25:30.571Z,100.00
2022-10-03T20:28:03.624Z,100.00
2022-10-03T20:30:42.839Z,100.00
2022-10-03T20:33:19.000Z,100.00
2022-10-03T20:35:55.261Z,100.00
2022-10-03T20:38:32.983Z,100.00
2022-10-03T20:41:10.023Z,100.00
2022-10-03T20:43:42.488Z,100.00
2022-10-03T20:46:19.786Z,100.00
2022-10-03T20:49:05.312Z,100.00
2022-10-03T20:51:44.709Z,100.00
2022-10-03T20:54:22.213Z,100.00
2022-10-03T20:57:01.518Z,100.00
2022-10-03T20:59:37.995Z,100.00
2022-10-03T21:02:12.321Z,100.00
2022-10-03T21:04:50.596Z,100.00
2022-10-03T21:07:28.118Z,100.00
2022-10-03T21:10:01.457Z,100.00
2022-10-03T21:12:35.730Z,100.00
2022-10-03T21:15:11.046Z,100.00
2022-10-03T21:17:45.325Z,100.00
2022-10-03T21:20:20.067Z,100.00
2022-10-03T21:23:00.172Z,100.00
2022-10-03T21:25:33.285Z,100.00
2022-10-03T21:28:05.760Z,100.00
2022-10-03T21:30:46.164Z,100.00
2022-10-03T21:33:22.116Z,100.00
2022-10-03T21:35:56.295Z,100.00
2022-10-03T21:38:29.161Z,100.00
2022-10-03T21:41:07.147Z,100.00
2022-10-03T21:43:41.716Z,100.00
2022-10-03T21:46:18.244Z,100.00
2022-10-03T21:49:00.228Z,100.00
2022-10-03T21:51:39.379Z,100.00
2022-10-03T21:54:26.241Z,100.00
2022-10-03T21:57:05.253Z,100.00
2022-10-03T21:59:46.422Z,100.00
2022-10-03T22:02:20.452Z,100.00
2022-10-03T22:04:53.394Z,100.00
2022-10-03T22:07:36.061Z,100.00
2022-10-03T22:10:08.307Z,100.00
2022-10-03T22:12:45.081Z,100.00
2022-10-03T22:15:20.405Z,100.00
2022-10-03T22:17:54.305Z,100.00
2022-10-03T22:20:26.475Z,100.00
2022-10-03T22:23:13.125Z,100.00
2022-10-03T22:25:55.366Z,100.00
2022-10-03T22:28:31.863Z,100.00
2022-10-03T22:31:07.763Z,100.00
2022-10-03T22:33:44.791Z,100.00
2022-10-03T22:36:15.463Z,100.00
2022-10-03T22:38:50.006Z,100.00
2022-10-03T22:41:23.034Z,100.00
2022-10-03T22:43:55.032Z,100.00
2022-10-03T22:46:27.308Z,100.00
2022-10-03T22:49:01.215Z,100.00
2022-10-03T22:51:34.217Z,100.00
2022-10-03T22:54:11.408Z,100.00
2022-10-03T22:56:48.266Z,100.00
2022-10-03T22:59:22.372Z,100.00
2022-10-03T23:01:53.791Z,100.00
2022-10-03T23:04:32.313Z,100.00
2022-10-03T23:07:10.147Z,100.00
2022-10-03T23:09:50.526Z,100.00
2022-10-03T23:12:21.968Z,100.00
2022-10-03T23:14:54.222Z,100.00
2022-10-03T23:17:38.181Z,100.00
2022-10-03T23:20:15.398Z,100.00
2022-10-03T23:22:49.107Z,100.00
2022-10-03T23:25:25.246Z,100.00
2022-10-03T23:28:04.496Z,100.00
2022-10-03T23:30:51.116Z,100.00
2022-10-03T23:33:22.211Z,100.00
2022-10-03T23:35:53.840Z,100.00
2022-10-03T23:38:39.006Z,100.00
2022-10-03T23:41:16.660Z,100.00
2022-10-03T23:43:51.617Z,100.00
2022-10-03T23:46:23.303Z,100.00
2022-10-03T23:48:54.943Z,100.00
2022-10-03T23:51:26.513Z,100.00
2022-10-03T23:54:04.035Z,100.00
2022-10-03T23:56:42.223Z,100.00
2022-10-03T23:59:20.209Z,100.00
